sensor_id;sensor_type;location;lat;lon;timestamp;P1;durP1;ratioP1;P2;durP2;ratioP2
19016;SDS011;9641;51.494;6.670;2023-02-03T00:00:30;19.63;;;12.00;;
19016;SDS011;9641;51.494;6.670;2023-02-03T00:02:58;17.70;;;11.53;;
19016;SDS011;9641;51.494;6.670;2023-02-03T00:05:25;20.40;;;11.67;;
19016;SDS011;9641;51.494;6.670;2023-02-03T00:07:52;23.03;;;11.77;;
19016;SDS011;9641;51.494;6.670;2023-02-03T00:10:19;22.13;;;10.87;;
19016;SDS011;9641;51.494;6.670;2023-02-03T00:12:46;23.77;;;11.90;;
19016;SDS011;9641;51.494;6.670;2023-02-03T00:15:14;23.23;;;10.97;;
19016;SDS011;9641;51.494;6.670;2023-02-03T00:17:41;18.73;;;10.87;;
19016;SDS011;9641;51.494;6.670;2023-02-03T00:20:10;19.90;;;11.77;;
19016;SDS011;9641;51.494;6.670;2023-02-03T00:22:37;20.63;;;11.10;;
19016;SDS011;9641;51.494;6.670;2023-02-03T00:25:04;26.67;;;11.57;;
19016;SDS011;9641;51.494;6.670;2023-02-03T00:27:31;21.77;;;12.83;;
19016;SDS011;9641;51.494;6.670;2023-02-03T00:29:58;18.97;;;11.83;;
19016;SDS011;9641;51.494;6.670;2023-02-03T00:32:26;18.40;;;11.57;;
19016;SDS011;9641;51.494;6.670;2023-02-03T00:34:53;16.93;;;11.97;;
19016;SDS011;9641;51.494;6.670;2023-02-03T00:37:22;18.67;;;11.03;;
19016;SDS011;9641;51.494;6.670;2023-02-03T00:39:49;21.70;;;11.47;;
19016;SDS011;9641;51.494;6.670;2023-02-03T00:42:15;18.63;;;11.03;;
19016;SDS011;9641;51.494;6.670;2023-02-03T00:44:42;25.53;;;12.20;;
19016;SDS011;9641;51.494;6.670;2023-02-03T00:47:09;21.63;;;11.70;;
19016;SDS011;9641;51.494;6.670;2023-02-03T00:49:36;21.37;;;12.30;;
19016;SDS011;9641;51.494;6.670;2023-02-03T00:52:03;17.67;;;11.93;;
19016;SDS011;9641;51.494;6.670;2023-02-03T00:54:32;20.97;;;13.77;;
19016;SDS011;9641;51.494;6.670;2023-02-03T00:56:59;17.70;;;12.30;;
19016;SDS011;9641;51.494;6.670;2023-02-03T00:59:26;21.33;;;12.20;;
19016;SDS011;9641;51.494;6.670;2023-02-03T01:01:52;24.47;;;11.43;;
19016;SDS011;9641;51.494;6.670;2023-02-03T01:04:19;24.53;;;12.43;;
19016;SDS011;9641;51.494;6.670;2023-02-03T01:06:46;22.13;;;12.33;;
19016;SDS011;9641;51.494;6.670;2023-02-03T01:09:13;20.43;;;11.20;;
19016;SDS011;9641;51.494;6.670;2023-02-03T01:11:41;22.37;;;12.23;;
19016;SDS011;9641;51.494;6.670;2023-02-03T01:14:08;24.33;;;12.93;;
19016;SDS011;9641;51.494;6.670;2023-02-03T01:16:35;22.83;;;12.47;;
19016;SDS011;9641;51.494;6.670;2023-02-03T01:19:02;19.60;;;12.10;;
19016;SDS011;9641;51.494;6.670;2023-02-03T01:21:30;21.47;;;11.90;;
19016;SDS011;9641;51.494;6.670;2023-02-03T01:23:57;18.83;;;11.70;;
19016;SDS011;9641;51.494;6.670;2023-02-03T01:26:25;20.17;;;10.93;;
19016;SDS011;9641;51.494;6.670;2023-02-03T01:28:54;21.43;;;10.80;;
19016;SDS011;9641;51.494;6.670;2023-02-03T01:31:23;21.17;;;11.87;;
19016;SDS011;9641;51.494;6.670;2023-02-03T01:33:51;23.77;;;10.67;;
19016;SDS011;9641;51.494;6.670;2023-02-03T01:36:20;20.43;;;11.83;;
19016;SDS011;9641;51.494;6.670;2023-02-03T01:38:48;18.93;;;11.10;;
19016;SDS011;9641;51.494;6.670;2023-02-03T01:41:16;20.47;;;10.67;;
19016;SDS011;9641;51.494;6.670;2023-02-03T01:43:45;25.87;;;10.67;;
19016;SDS011;9641;51.494;6.670;2023-02-03T01:46:21;19.97;;;10.07;;
19016;SDS011;9641;51.494;6.670;2023-02-03T01:48:54;18.50;;;10.47;;
19016;SDS011;9641;51.494;6.670;2023-02-03T01:51:32;19.83;;;10.67;;
19016;SDS011;9641;51.494;6.670;2023-02-03T01:54:00;22.43;;;11.50;;
19016;SDS011;9641;51.494;6.670;2023-02-03T01:56:28;21.47;;;9.60;;
19016;SDS011;9641;51.494;6.670;2023-02-03T01:59:00;17.63;;;9.97;;
19016;SDS011;9641;51.494;6.670;2023-02-03T02:01:29;17.73;;;9.40;;
19016;SDS011;9641;51.494;6.670;2023-02-03T02:03:58;20.07;;;9.53;;
19016;SDS011;9641;51.494;6.670;2023-02-03T02:06:28;16.17;;;8.93;;
19016;SDS011;9641;51.494;6.670;2023-02-03T02:08:56;16.63;;;10.07;;
19016;SDS011;9641;51.494;6.670;2023-02-03T02:11:25;25.67;;;9.53;;
19016;SDS011;9641;51.494;6.670;2023-02-03T02:13:52;21.27;;;9.53;;
19016;SDS011;9641;51.494;6.670;2023-02-03T02:16:25;18.67;;;10.23;;
19016;SDS011;9641;51.494;6.670;2023-02-03T02:19:08;17.37;;;9.20;;
19016;SDS011;9641;51.494;6.670;2023-02-03T02:22:00;15.73;;;8.77;;
19016;SDS011;9641;51.494;6.670;2023-02-03T02:24:40;18.93;;;9.63;;
19016;SDS011;9641;51.494;6.670;2023-02-03T02:30:38;15.90;;;8.30;;
19016;SDS011;9641;51.494;6.670;2023-02-03T02:33:16;13.73;;;8.37;;
19016;SDS011;9641;51.494;6.670;2023-02-03T02:35:54;14.23;;;7.90;;
19016;SDS011;9641;51.494;6.670;2023-02-03T02:38:36;17.13;;;8.10;;
19016;SDS011;9641;51.494;6.670;2023-02-03T02:41:10;17.87;;;8.20;;
19016;SDS011;9641;51.494;6.670;2023-02-03T02:43:46;15.63;;;8.50;;
19016;SDS011;9641;51.494;6.670;2023-02-03T02:46:23;16.60;;;8.63;;
19016;SDS011;9641;51.494;6.670;2023-02-03T02:49:00;8.77;;;7.20;;
19016;SDS011;9641;51.494;6.670;2023-02-03T02:51:32;13.13;;;7.30;;
19016;SDS011;9641;51.494;6.670;2023-02-03T02:54:01;12.73;;;6.87;;
19016;SDS011;9641;51.494;6.670;2023-02-03T02:56:31;14.70;;;7.30;;
19016;SDS011;9641;51.494;6.670;2023-02-03T02:59:02;17.53;;;7.37;;
19016;SDS011;9641;51.494;6.670;2023-02-03T03:01:31;16.63;;;6.10;;
19016;SDS011;9641;51.494;6.670;2023-02-03T03:04:00;11.97;;;5.10;;
19016;SDS011;9641;51.494;6.670;2023-02-03T03:06:33;12.57;;;6.37;;
19016;SDS011;9641;51.494;6.670;2023-02-03T03:09:06;17.00;;;5.80;;
19016;SDS011;9641;51.494;6.670;2023-02-03T03:11:38;14.13;;;5.73;;
19016;SDS011;9641;51.494;6.670;2023-02-03T03:14:08;10.73;;;6.27;;
19016;SDS011;9641;51.494;6.670;2023-02-03T03:16:38;14.03;;;5.53;;
19016;SDS011;9641;51.494;6.670;2023-02-03T03:19:16;11.00;;;5.37;;
19016;SDS011;9641;51.494;6.670;2023-02-03T03:21:48;8.43;;;5.30;;
19016;SDS011;9641;51.494;6.670;2023-02-03T03:24:20;12.33;;;5.57;;
19016;SDS011;9641;51.494;6.670;2023-02-03T03:26:51;12.30;;;5.57;;
19016;SDS011;9641;51.494;6.670;2023-02-03T03:29:23;8.47;;;5.13;;
19016;SDS011;9641;51.494;6.670;2023-02-03T03:31:55;18.03;;;5.33;;
19016;SDS011;9641;51.494;6.670;2023-02-03T03:34:24;10.10;;;4.70;;
19016;SDS011;9641;51.494;6.670;2023-02-03T03:36:52;11.67;;;5.37;;
19016;SDS011;9641;51.494;6.670;2023-02-03T03:39:25;16.67;;;4.87;;
19016;SDS011;9641;51.494;6.670;2023-02-03T03:42:01;12.40;;;4.60;;
19016;SDS011;9641;51.494;6.670;2023-02-03T03:44:34;9.53;;;4.53;;
19016;SDS011;9641;51.494;6.670;2023-02-03T03:47:05;8.90;;;4.50;;
19016;SDS011;9641;51.494;6.670;2023-02-03T03:49:42;11.10;;;4.53;;
19016;SDS011;9641;51.494;6.670;2023-02-03T03:52:11;10.57;;;4.43;;
19016;SDS011;9641;51.494;6.670;2023-02-03T03:54:41;6.93;;;4.70;;
19016;SDS011;9641;51.494;6.670;2023-02-03T03:57:11;6.80;;;3.87;;
19016;SDS011;9641;51.494;6.670;2023-02-03T03:59:43;6.73;;;3.73;;
19016;SDS011;9641;51.494;6.670;2023-02-03T04:02:12;15.87;;;4.53;;
19016;SDS011;9641;51.494;6.670;2023-02-03T04:04:42;10.00;;;3.70;;
19016;SDS011;9641;51.494;6.670;2023-02-03T04:07:11;8.57;;;4.03;;
19016;SDS011;9641;51.494;6.670;2023-02-03T04:09:38;10.10;;;4.23;;
19016;SDS011;9641;51.494;6.670;2023-02-03T04:12:08;9.57;;;4.23;;
19016;SDS011;9641;51.494;6.670;2023-02-03T04:14:41;8.17;;;4.50;;
19016;SDS011;9641;51.494;6.670;2023-02-03T04:17:08;10.63;;;4.60;;
19016;SDS011;9641;51.494;6.670;2023-02-03T04:19:35;10.77;;;4.00;;
19016;SDS011;9641;51.494;6.670;2023-02-03T04:22:03;8.90;;;3.50;;
19016;SDS011;9641;51.494;6.670;2023-02-03T04:24:30;6.93;;;4.13;;
19016;SDS011;9641;51.494;6.670;2023-02-03T04:26:57;9.97;;;4.20;;
19016;SDS011;9641;51.494;6.670;2023-02-03T04:29:24;8.10;;;4.00;;
19016;SDS011;9641;51.494;6.670;2023-02-03T04:31:51;8.33;;;4.27;;
19016;SDS011;9641;51.494;6.670;2023-02-03T04:34:18;9.33;;;3.97;;
19016;SDS011;9641;51.494;6.670;2023-02-03T04:36:44;8.40;;;3.83;;
19016;SDS011;9641;51.494;6.670;2023-02-03T04:39:13;18.17;;;5.00;;
19016;SDS011;9641;51.494;6.670;2023-02-03T04:41:40;8.77;;;4.07;;
19016;SDS011;9641;51.494;6.670;2023-02-03T04:44:07;12.57;;;3.97;;
19016;SDS011;9641;51.494;6.670;2023-02-03T04:46:34;11.63;;;4.10;;
19016;SDS011;9641;51.494;6.670;2023-02-03T04:49:01;6.03;;;3.57;;
19016;SDS011;9641;51.494;6.670;2023-02-03T04:51:28;13.37;;;4.20;;
19016;SDS011;9641;51.494;6.670;2023-02-03T04:53:55;8.63;;;3.80;;
19016;SDS011;9641;51.494;6.670;2023-02-03T04:56:23;12.87;;;3.90;;
19016;SDS011;9641;51.494;6.670;2023-02-03T04:58:50;6.40;;;3.83;;
19016;SDS011;9641;51.494;6.670;2023-02-03T05:01:17;8.60;;;3.93;;
19016;SDS011;9641;51.494;6.670;2023-02-03T05:03:44;10.37;;;4.63;;
19016;SDS011;9641;51.494;6.670;2023-02-03T05:06:10;8.97;;;3.50;;
19016;SDS011;9641;51.494;6.670;2023-02-03T05:08:38;5.23;;;3.33;;
19016;SDS011;9641;51.494;6.670;2023-02-03T05:11:05;9.23;;;4.33;;
19016;SDS011;9641;51.494;6.670;2023-02-03T05:13:33;9.87;;;3.87;;
19016;SDS011;9641;51.494;6.670;2023-02-03T05:16:00;11.70;;;4.00;;
19016;SDS011;9641;51.494;6.670;2023-02-03T05:18:27;5.90;;;3.37;;
19016;SDS011;9641;51.494;6.670;2023-02-03T05:20:54;8.13;;;3.90;;
19016;SDS011;9641;51.494;6.670;2023-02-03T05:23:21;10.70;;;3.33;;
19016;SDS011;9641;51.494;6.670;2023-02-03T05:25:48;10.30;;;3.20;;
19016;SDS011;9641;51.494;6.670;2023-02-03T05:28:15;5.97;;;2.87;;
19016;SDS011;9641;51.494;6.670;2023-02-03T05:30:43;9.63;;;3.37;;
19016;SDS011;9641;51.494;6.670;2023-02-03T05:33:10;5.33;;;2.67;;
19016;SDS011;9641;51.494;6.670;2023-02-03T05:35:37;7.80;;;2.77;;
19016;SDS011;9641;51.494;6.670;2023-02-03T05:38:04;11.67;;;3.97;;
19016;SDS011;9641;51.494;6.670;2023-02-03T05:40:31;7.50;;;2.50;;
19016;SDS011;9641;51.494;6.670;2023-02-03T05:43:15;8.10;;;2.80;;
19016;SDS011;9641;51.494;6.670;2023-02-03T05:45:43;4.53;;;2.50;;
19016;SDS011;9641;51.494;6.670;2023-02-03T05:48:10;8.07;;;2.63;;
19016;SDS011;9641;51.494;6.670;2023-02-03T05:50:37;8.47;;;2.57;;
19016;SDS011;9641;51.494;6.670;2023-02-03T05:53:07;6.27;;;2.53;;
19016;SDS011;9641;51.494;6.670;2023-02-03T05:55:35;5.57;;;2.67;;
19016;SDS011;9641;51.494;6.670;2023-02-03T05:58:02;5.23;;;2.57;;
19016;SDS011;9641;51.494;6.670;2023-02-03T06:00:29;8.17;;;2.80;;
19016;SDS011;9641;51.494;6.670;2023-02-03T06:02:59;7.10;;;3.13;;
19016;SDS011;9641;51.494;6.670;2023-02-03T06:05:28;7.90;;;2.67;;
19016;SDS011;9641;51.494;6.670;2023-02-03T06:07:55;8.33;;;2.63;;
19016;SDS011;9641;51.494;6.670;2023-02-03T06:10:23;6.13;;;2.63;;
19016;SDS011;9641;51.494;6.670;2023-02-03T06:12:50;5.37;;;2.50;;
19016;SDS011;9641;51.494;6.670;2023-02-03T06:15:17;9.47;;;2.80;;
19016;SDS011;9641;51.494;6.670;2023-02-03T06:17:44;5.00;;;2.67;;
19016;SDS011;9641;51.494;6.670;2023-02-03T06:20:14;8.07;;;2.67;;
19016;SDS011;9641;51.494;6.670;2023-02-03T06:22:42;5.43;;;2.60;;
19016;SDS011;9641;51.494;6.670;2023-02-03T06:25:09;7.40;;;2.60;;
19016;SDS011;9641;51.494;6.670;2023-02-03T06:27:38;5.50;;;2.77;;
19016;SDS011;9641;51.494;6.670;2023-02-03T06:30:05;7.30;;;2.57;;
19016;SDS011;9641;51.494;6.670;2023-02-03T06:32:33;7.17;;;2.47;;
19016;SDS011;9641;51.494;6.670;2023-02-03T06:34:59;8.30;;;2.60;;
19016;SDS011;9641;51.494;6.670;2023-02-03T06:37:28;5.17;;;2.70;;
19016;SDS011;9641;51.494;6.670;2023-02-03T06:39:55;6.83;;;2.30;;
19016;SDS011;9641;51.494;6.670;2023-02-03T06:42:22;5.70;;;2.37;;
19016;SDS011;9641;51.494;6.670;2023-02-03T06:44:48;11.70;;;2.40;;
19016;SDS011;9641;51.494;6.670;2023-02-03T06:47:16;5.67;;;2.83;;
19016;SDS011;9641;51.494;6.670;2023-02-03T06:49:43;7.97;;;2.40;;
19016;SDS011;9641;51.494;6.670;2023-02-03T06:52:10;6.87;;;2.63;;
19016;SDS011;9641;51.494;6.670;2023-02-03T06:54:39;4.13;;;2.43;;
19016;SDS011;9641;51.494;6.670;2023-02-03T06:57:06;7.50;;;2.50;;
19016;SDS011;9641;51.494;6.670;2023-02-03T06:59:33;7.23;;;2.53;;
19016;SDS011;9641;51.494;6.670;2023-02-03T07:02:00;5.33;;;2.47;;
19016;SDS011;9641;51.494;6.670;2023-02-03T07:04:27;4.40;;;2.10;;
19016;SDS011;9641;51.494;6.670;2023-02-03T07:06:55;3.00;;;2.23;;
19016;SDS011;9641;51.494;6.670;2023-02-03T07:09:22;4.47;;;2.53;;
19016;SDS011;9641;51.494;6.670;2023-02-03T07:11:50;4.77;;;2.57;;
19016;SDS011;9641;51.494;6.670;2023-02-03T07:14:17;4.77;;;2.33;;
19016;SDS011;9641;51.494;6.670;2023-02-03T07:16:44;9.73;;;2.77;;
19016;SDS011;9641;51.494;6.670;2023-02-03T07:19:11;7.63;;;2.67;;
19016;SDS011;9641;51.494;6.670;2023-02-03T07:21:38;4.97;;;2.50;;
19016;SDS011;9641;51.494;6.670;2023-02-03T07:24:05;4.90;;;2.47;;
19016;SDS011;9641;51.494;6.670;2023-02-03T07:26:32;4.80;;;2.60;;
19016;SDS011;9641;51.494;6.670;2023-02-03T07:29:00;4.87;;;2.60;;
19016;SDS011;9641;51.494;6.670;2023-02-03T07:31:28;9.63;;;2.80;;
19016;SDS011;9641;51.494;6.670;2023-02-03T07:33:55;9.37;;;2.33;;
19016;SDS011;9641;51.494;6.670;2023-02-03T07:36:21;3.20;;;2.23;;
19016;SDS011;9641;51.494;6.670;2023-02-03T07:38:52;4.00;;;2.47;;
19016;SDS011;9641;51.494;6.670;2023-02-03T07:41:19;4.67;;;2.57;;
19016;SDS011;9641;51.494;6.670;2023-02-03T07:43:46;4.23;;;2.37;;
19016;SDS011;9641;51.494;6.670;2023-02-03T07:46:14;7.83;;;2.83;;
19016;SDS011;9641;51.494;6.670;2023-02-03T07:48:41;9.03;;;2.60;;
19016;SDS011;9641;51.494;6.670;2023-02-03T07:51:08;4.87;;;2.50;;
19016;SDS011;9641;51.494;6.670;2023-02-03T07:53:35;5.83;;;2.53;;
19016;SDS011;9641;51.494;6.670;2023-02-03T07:56:02;4.63;;;2.17;;
19016;SDS011;9641;51.494;6.670;2023-02-03T07:58:30;5.27;;;2.53;;
19016;SDS011;9641;51.494;6.670;2023-02-03T08:00:57;7.43;;;3.10;;
19016;SDS011;9641;51.494;6.670;2023-02-03T08:03:26;11.53;;;2.93;;
19016;SDS011;9641;51.494;6.670;2023-02-03T08:05:53;7.10;;;2.70;;
19016;SDS011;9641;51.494;6.670;2023-02-03T08:08:20;6.17;;;2.40;;
19016;SDS011;9641;51.494;6.670;2023-02-03T08:10:46;6.80;;;2.50;;
19016;SDS011;9641;51.494;6.670;2023-02-03T08:13:13;5.77;;;2.40;;
19016;SDS011;9641;51.494;6.670;2023-02-03T08:15:40;6.87;;;2.63;;
19016;SDS011;9641;51.494;6.670;2023-02-03T08:18:07;7.07;;;2.60;;
19016;SDS011;9641;51.494;6.670;2023-02-03T08:20:38;7.40;;;2.87;;
19016;SDS011;9641;51.494;6.670;2023-02-03T08:23:05;3.03;;;2.10;;
19016;SDS011;9641;51.494;6.670;2023-02-03T08:25:32;6.77;;;2.80;;
19016;SDS011;9641;51.494;6.670;2023-02-03T08:27:59;3.93;;;2.37;;
19016;SDS011;9641;51.494;6.670;2023-02-03T08:30:26;6.40;;;2.20;;
19016;SDS011;9641;51.494;6.670;2023-02-03T08:32:52;8.03;;;2.83;;
19016;SDS011;9641;51.494;6.670;2023-02-03T08:35:19;6.53;;;2.83;;
19016;SDS011;9641;51.494;6.670;2023-02-03T08:37:47;4.70;;;2.10;;
19016;SDS011;9641;51.494;6.670;2023-02-03T08:40:14;4.63;;;2.30;;
19016;SDS011;9641;51.494;6.670;2023-02-03T08:42:42;9.57;;;2.40;;
19016;SDS011;9641;51.494;6.670;2023-02-03T08:45:09;8.00;;;3.00;;
19016;SDS011;9641;51.494;6.670;2023-02-03T08:47:36;4.03;;;2.73;;
19016;SDS011;9641;51.494;6.670;2023-02-03T08:50:03;6.03;;;2.50;;
19016;SDS011;9641;51.494;6.670;2023-02-03T08:52:32;4.77;;;2.67;;
19016;SDS011;9641;51.494;6.670;2023-02-03T08:55:00;10.77;;;3.13;;
19016;SDS011;9641;51.494;6.670;2023-02-03T08:57:27;7.33;;;2.30;;
19016;SDS011;9641;51.494;6.670;2023-02-03T08:59:57;6.63;;;2.70;;
19016;SDS011;9641;51.494;6.670;2023-02-03T09:02:24;7.50;;;2.60;;
19016;SDS011;9641;51.494;6.670;2023-02-03T09:04:51;5.17;;;2.50;;
19016;SDS011;9641;51.494;6.670;2023-02-03T09:07:18;7.13;;;2.73;;
19016;SDS011;9641;51.494;6.670;2023-02-03T09:09:45;4.93;;;2.37;;
19016;SDS011;9641;51.494;6.670;2023-02-03T09:12:13;9.13;;;3.00;;
19016;SDS011;9641;51.494;6.670;2023-02-03T09:14:40;7.30;;;2.57;;
19016;SDS011;9641;51.494;6.670;2023-02-03T09:17:08;6.47;;;2.50;;
19016;SDS011;9641;51.494;6.670;2023-02-03T09:19:35;6.80;;;2.50;;
19016;SDS011;9641;51.494;6.670;2023-02-03T09:22:02;3.13;;;2.60;;
19016;SDS011;9641;51.494;6.670;2023-02-03T09:24:29;8.73;;;2.73;;
19016;SDS011;9641;51.494;6.670;2023-02-03T09:26:56;8.10;;;3.17;;
19016;SDS011;9641;51.494;6.670;2023-02-03T09:29:26;10.40;;;2.73;;
19016;SDS011;9641;51.494;6.670;2023-02-03T09:31:53;7.87;;;3.10;;
19016;SDS011;9641;51.494;6.670;2023-02-03T09:34:20;7.43;;;2.47;;
19016;SDS011;9641;51.494;6.670;2023-02-03T09:36:47;7.63;;;2.70;;
19016;SDS011;9641;51.494;6.670;2023-02-03T09:39:15;8.33;;;2.53;;
19016;SDS011;9641;51.494;6.670;2023-02-03T09:41:49;4.53;;;2.87;;
19016;SDS011;9641;51.494;6.670;2023-02-03T09:44:38;7.23;;;2.87;;
19016;SDS011;9641;51.494;6.670;2023-02-03T09:47:11;4.23;;;2.53;;
19016;SDS011;9641;51.494;6.670;2023-02-03T09:49:41;12.27;;;3.00;;
19016;SDS011;9641;51.494;6.670;2023-02-03T09:52:13;6.93;;;2.53;;
19016;SDS011;9641;51.494;6.670;2023-02-03T09:54:46;6.77;;;2.60;;
19016;SDS011;9641;51.494;6.670;2023-02-03T09:57:17;6.73;;;2.53;;
19016;SDS011;9641;51.494;6.670;2023-02-03T09:59:48;6.47;;;3.00;;
19016;SDS011;9641;51.494;6.670;2023-02-03T10:02:20;7.47;;;2.77;;
19016;SDS011;9641;51.494;6.670;2023-02-03T10:05:00;6.40;;;2.80;;
19016;SDS011;9641;51.494;6.670;2023-02-03T10:07:38;10.00;;;2.90;;
19016;SDS011;9641;51.494;6.670;2023-02-03T10:10:15;3.67;;;2.40;;
19016;SDS011;9641;51.494;6.670;2023-02-03T10:15:51;9.33;;;2.70;;
19016;SDS011;9641;51.494;6.670;2023-02-03T10:18:24;8.57;;;2.80;;
19016;SDS011;9641;51.494;6.670;2023-02-03T10:20:56;11.27;;;3.17;;
19016;SDS011;9641;51.494;6.670;2023-02-03T10:23:28;7.63;;;2.90;;
19016;SDS011;9641;51.494;6.670;2023-02-03T10:25:57;6.27;;;2.70;;
19016;SDS011;9641;51.494;6.670;2023-02-03T10:28:27;7.50;;;2.87;;
19016;SDS011;9641;51.494;6.670;2023-02-03T10:31:00;5.80;;;2.50;;
19016;SDS011;9641;51.494;6.670;2023-02-03T10:33:30;4.83;;;2.47;;
19016;SDS011;9641;51.494;6.670;2023-02-03T10:36:00;4.17;;;2.37;;
19016;SDS011;9641;51.494;6.670;2023-02-03T10:38:39;5.57;;;2.60;;
19016;SDS011;9641;51.494;6.670;2023-02-03T10:41:12;5.47;;;2.73;;
19016;SDS011;9641;51.494;6.670;2023-02-03T10:43:40;8.40;;;2.83;;
19016;SDS011;9641;51.494;6.670;2023-02-03T10:46:17;8.53;;;3.23;;
19016;SDS011;9641;51.494;6.670;2023-02-03T10:48:46;9.27;;;2.83;;
19016;SDS011;9641;51.494;6.670;2023-02-03T10:51:17;8.87;;;2.87;;
19016;SDS011;9641;51.494;6.670;2023-02-03T10:53:46;6.80;;;2.80;;
19016;SDS011;9641;51.494;6.670;2023-02-03T10:56:17;16.00;;;3.40;;
19016;SDS011;9641;51.494;6.670;2023-02-03T10:58:52;5.53;;;3.20;;
19016;SDS011;9641;51.494;6.670;2023-02-03T11:01:24;10.57;;;3.07;;
19016;SDS011;9641;51.494;6.670;2023-02-03T11:03:54;11.57;;;2.97;;
19016;SDS011;9641;51.494;6.670;2023-02-03T11:06:24;7.57;;;2.90;;
19016;SDS011;9641;51.494;6.670;2023-02-03T11:08:51;12.60;;;3.30;;
19016;SDS011;9641;51.494;6.670;2023-02-03T11:11:20;9.20;;;3.23;;
19016;SDS011;9641;51.494;6.670;2023-02-03T11:13:52;9.80;;;3.00;;
19016;SDS011;9641;51.494;6.670;2023-02-03T11:16:21;10.10;;;2.80;;
19016;SDS011;9641;51.494;6.670;2023-02-03T11:18:51;8.03;;;3.30;;
19016;SDS011;9641;51.494;6.670;2023-02-03T11:21:20;9.10;;;2.97;;
19016;SDS011;9641;51.494;6.670;2023-02-03T11:23:54;6.70;;;3.20;;
19016;SDS011;9641;51.494;6.670;2023-02-03T11:26:26;8.87;;;3.30;;
19016;SDS011;9641;51.494;6.670;2023-02-03T11:28:56;8.10;;;2.90;;
19016;SDS011;9641;51.494;6.670;2023-02-03T11:31:27;13.20;;;3.43;;
19016;SDS011;9641;51.494;6.670;2023-02-03T11:33:56;5.33;;;2.90;;
19016;SDS011;9641;51.494;6.670;2023-02-03T11:36:26;4.57;;;2.97;;
19016;SDS011;9641;51.494;6.670;2023-02-03T11:42:20;12.23;;;3.67;;
19016;SDS011;9641;51.494;6.670;2023-02-03T11:44:47;5.23;;;3.40;;
19016;SDS011;9641;51.494;6.670;2023-02-03T11:47:16;11.27;;;3.97;;
19016;SDS011;9641;51.494;6.670;2023-02-03T11:50:02;8.20;;;3.27;;
19016;SDS011;9641;51.494;6.670;2023-02-03T11:52:42;9.40;;;3.23;;
19016;SDS011;9641;51.494;6.670;2023-02-03T11:55:18;9.87;;;2.97;;
19016;SDS011;9641;51.494;6.670;2023-02-03T11:57:53;5.17;;;3.30;;
19016;SDS011;9641;51.494;6.670;2023-02-03T12:00:33;6.43;;;3.30;;
19016;SDS011;9641;51.494;6.670;2023-02-03T12:03:33;8.70;;;3.20;;
19016;SDS011;9641;51.494;6.670;2023-02-03T12:06:21;5.70;;;3.00;;
19016;SDS011;9641;51.494;6.670;2023-02-03T12:09:08;8.43;;;3.10;;
19016;SDS011;9641;51.494;6.670;2023-02-03T12:11:57;12.23;;;3.80;;
19016;SDS011;9641;51.494;6.670;2023-02-03T12:14:48;9.10;;;3.20;;
19016;SDS011;9641;51.494;6.670;2023-02-03T12:17:31;11.70;;;3.33;;
19016;SDS011;9641;51.494;6.670;2023-02-03T12:20:30;7.73;;;3.47;;
19016;SDS011;9641;51.494;6.670;2023-02-03T12:23:12;10.70;;;3.10;;
19016;SDS011;9641;51.494;6.670;2023-02-03T12:25:52;9.33;;;3.50;;
19016;SDS011;9641;51.494;6.670;2023-02-03T12:28:31;4.93;;;2.90;;
19016;SDS011;9641;51.494;6.670;2023-02-03T12:31:11;6.03;;;2.90;;
19016;SDS011;9641;51.494;6.670;2023-02-03T12:33:44;10.37;;;3.10;;
19016;SDS011;9641;51.494;6.670;2023-02-03T12:36:19;9.80;;;3.20;;
19016;SDS011;9641;51.494;6.670;2023-02-03T12:38:51;5.87;;;2.83;;
19016;SDS011;9641;51.494;6.670;2023-02-03T12:41:21;9.73;;;3.10;;
19016;SDS011;9641;51.494;6.670;2023-02-03T12:43:52;5.47;;;2.63;;
19016;SDS011;9641;51.494;6.670;2023-02-03T12:46:25;7.73;;;2.90;;
19016;SDS011;9641;51.494;6.670;2023-02-03T12:48:56;8.00;;;3.00;;
19016;SDS011;9641;51.494;6.670;2023-02-03T12:51:32;5.60;;;3.30;;
19016;SDS011;9641;51.494;6.670;2023-02-03T12:54:05;4.43;;;2.87;;
19016;SDS011;9641;51.494;6.670;2023-02-03T12:56:50;5.67;;;2.97;;
19016;SDS011;9641;51.494;6.670;2023-02-03T12:59:21;8.40;;;3.37;;
19016;SDS011;9641;51.494;6.670;2023-02-03T13:01:51;7.07;;;2.93;;
19016;SDS011;9641;51.494;6.670;2023-02-03T13:04:24;5.60;;;2.70;;
19016;SDS011;9641;51.494;6.670;2023-02-03T13:06:59;5.23;;;3.20;;
19016;SDS011;9641;51.494;6.670;2023-02-03T13:09:37;6.00;;;2.90;;
19016;SDS011;9641;51.494;6.670;2023-02-03T13:12:07;6.53;;;2.77;;
19016;SDS011;9641;51.494;6.670;2023-02-03T13:14:40;10.97;;;3.37;;
19016;SDS011;9641;51.494;6.670;2023-02-03T13:17:12;10.30;;;3.07;;
19016;SDS011;9641;51.494;6.670;2023-02-03T13:19:46;9.17;;;2.93;;
19016;SDS011;9641;51.494;6.670;2023-02-03T13:22:18;7.83;;;3.17;;
19016;SDS011;9641;51.494;6.670;2023-02-03T13:24:54;8.07;;;3.17;;
19016;SDS011;9641;51.494;6.670;2023-02-03T13:27:33;6.93;;;3.07;;
19016;SDS011;9641;51.494;6.670;2023-02-03T13:30:11;9.10;;;2.80;;
19016;SDS011;9641;51.494;6.670;2023-02-03T13:33:15;7.37;;;2.97;;
19016;SDS011;9641;51.494;6.670;2023-02-03T13:35:58;11.83;;;3.13;;
19016;SDS011;9641;51.494;6.670;2023-02-03T13:38:49;6.43;;;2.97;;
19016;SDS011;9641;51.494;6.670;2023-02-03T13:41:34;8.43;;;2.83;;
19016;SDS011;9641;51.494;6.670;2023-02-03T13:44:25;7.70;;;2.70;;
19016;SDS011;9641;51.494;6.670;2023-02-03T13:46:57;6.90;;;3.10;;
19016;SDS011;9641;51.494;6.670;2023-02-03T13:49:26;4.47;;;2.70;;
19016;SDS011;9641;51.494;6.670;2023-02-03T13:51:55;9.93;;;2.83;;
19016;SDS011;9641;51.494;6.670;2023-02-03T13:54:26;7.60;;;2.70;;
19016;SDS011;9641;51.494;6.670;2023-02-03T13:56:57;12.10;;;2.87;;
19016;SDS011;9641;51.494;6.670;2023-02-03T13:59:27;10.37;;;3.17;;
19016;SDS011;9641;51.494;6.670;2023-02-03T14:23:47;7.47;;;2.43;;
19016;SDS011;9641;51.494;6.670;2023-02-03T14:26:32;12.07;;;3.30;;
19016;SDS011;9641;51.494;6.670;2023-02-03T14:29:05;15.87;;;2.70;;
19016;SDS011;9641;51.494;6.670;2023-02-03T14:34:26;20.53;;;3.80;;
19016;SDS011;9641;51.494;6.670;2023-02-03T14:37:08;16.60;;;4.10;;
19016;SDS011;9641;51.494;6.670;2023-02-03T14:40:03;22.67;;;3.30;;
19016;SDS011;9641;51.494;6.670;2023-02-03T14:46:03;17.40;;;3.50;;
19016;SDS011;9641;51.494;6.670;2023-02-03T14:49:05;20.30;;;3.37;;
19016;SDS011;9641;51.494;6.670;2023-02-03T14:51:45;13.57;;;3.10;;
19016;SDS011;9641;51.494;6.670;2023-02-03T14:54:25;11.80;;;2.87;;
19016;SDS011;9641;51.494;6.670;2023-02-03T14:57:12;19.23;;;3.47;;
19016;SDS011;9641;51.494;6.670;2023-02-03T14:59:47;17.93;;;2.97;;
19016;SDS011;9641;51.494;6.670;2023-02-03T15:02:24;15.73;;;3.30;;
19016;SDS011;9641;51.494;6.670;2023-02-03T15:05:33;11.73;;;3.20;;
19016;SDS011;9641;51.494;6.670;2023-02-03T15:11:04;10.17;;;2.83;;
19016;SDS011;9641;51.494;6.670;2023-02-03T15:13:51;13.23;;;3.07;;
19016;SDS011;9641;51.494;6.670;2023-02-03T15:16:19;6.80;;;2.97;;
19016;SDS011;9641;51.494;6.670;2023-02-03T15:18:57;12.07;;;3.10;;
19016;SDS011;9641;51.494;6.670;2023-02-03T15:21:31;16.17;;;3.63;;
19016;SDS011;9641;51.494;6.670;2023-02-03T15:23:58;15.37;;;2.83;;
19016;SDS011;9641;51.494;6.670;2023-02-03T15:26:25;12.60;;;3.13;;
19016;SDS011;9641;51.494;6.670;2023-02-03T15:28:53;10.33;;;2.80;;
19016;SDS011;9641;51.494;6.670;2023-02-03T15:31:34;12.60;;;3.37;;
19016;SDS011;9641;51.494;6.670;2023-02-03T15:34:16;17.47;;;3.30;;
19016;SDS011;9641;51.494;6.670;2023-02-03T15:36:48;11.27;;;2.97;;
19016;SDS011;9641;51.494;6.670;2023-02-03T15:39:20;14.90;;;3.37;;
19016;SDS011;9641;51.494;6.670;2023-02-03T15:41:54;13.13;;;2.97;;
19016;SDS011;9641;51.494;6.670;2023-02-03T15:44:26;13.97;;;3.07;;
19016;SDS011;9641;51.494;6.670;2023-02-03T15:46:56;19.27;;;3.20;;
19016;SDS011;9641;51.494;6.670;2023-02-03T15:49:28;14.87;;;2.70;;
19016;SDS011;9641;51.494;6.670;2023-02-03T15:51:59;16.47;;;3.30;;
19016;SDS011;9641;51.494;6.670;2023-02-03T15:54:33;17.27;;;3.40;;
19016;SDS011;9641;51.494;6.670;2023-02-03T15:57:06;13.40;;;3.37;;